Flight Track Log - Related Links

Times and Time Zones

All times are in EDT time to prevent confusion due to time zone crossing. See the CTL312 flight status page for this flight to view local times or setup timezone preferences in your user account.

Time Position Orientation Groundspeed Altitude Reporting Facility
EDT Latitude Longitude Course Direction KTS MPH feet Rate Location/Type
Fri 09:57:26 PM 41.5233 -81.6786 329° Northwest 117 135 1,000  Level Cleveland Center
Fri 09:58:14 PM 41.5481 -81.6983 329° Northwest 156 180 1,800 716 Climbing Cleveland Center
Fri 09:59:15 PM 41.5767 -81.7461 309° West 172 198 2,300 590 Climbing Cleveland Center
Fri 10:00:16 PM 41.6056 -81.7939 309° West 170 196 3,000 694 Climbing Cleveland Center
Fri 10:01:16 PM 41.6214 -81.8525 290° West 165 190 3,700 645 Climbing Cleveland Center
Fri 10:02:17 PM 41.6417 -81.9139 294° West 163 188 4,300 590 Climbing Cleveland Center
Fri 10:03:18 PM 41.6575 -81.9728 290° West 167 192 4,900 545 Climbing Cleveland Center
Fri 10:04:18 PM 41.6756 -82.0286 293° West 168 193 5,400 496 Climbing Cleveland Center
Fri 10:05:19 PM 41.6958 -82.0819 297° West 165 190 5,900 347 Climbing Cleveland Center
Fri 10:06:19 PM 41.7117 -82.1408 290° West 166 191 6,100 68 Climbing Cleveland Center
Fri 10:06:47 PM 41.7197 -82.1633 296° West 165 190 6,000 -126 Descending Cleveland Center
Fri 10:07:54 PM 41.7417 -82.2333 293° West 170 196 5,900 -49 Descending Cleveland Center
Fri 10:08:49 PM 41.7683 -82.2731 312° West 167 192 5,900 90 Level Cleveland Center
Fri 10:10:07 PM 41.8153 -82.3300 318° Northwest 166 191 6,100 41 Climbing Cleveland Center
Fri 10:11:14 PM 41.8542 -82.3728 321° Northwest 168 193 6,000 -49 Descending Cleveland Center
Fri 10:12:09 PM 41.8850 -82.4128 316° Northwest 169 194 6,000  Level Cleveland Center
Fri 10:13:16 PM 41.9239 -82.4558 321° Northwest 169 194 6,000 50 Level Cleveland Center
Fri 10:14:10 PM 41.9564 -82.4958 318° Northwest 168 193 6,100  Climbing Cleveland Center
Fri 10:15:11 PM 41.9975 -82.5361 324° Northwest 168 193 6,000 -49 Descending Cleveland Center
Fri 10:16:12 PM 42.0322 -82.5764 319° Northwest 172 198 6,000  Level Cleveland Center
Fri 10:16:54 PM 42.0547 -82.6050 317° Northwest 172 198 6,000 55 Level Cleveland Center
Fri 10:18:01 PM 42.0978 -82.6483 323° Northwest 170 196 6,100 45 Climbing Cleveland Center
Fri 10:19:08 PM 42.1386 -82.6944 320° Northwest 170 196 6,100 -50 Level Cleveland Center
Fri 10:20:02 PM 42.1733 -82.7319 321° Northwest 169 194 6,000  Descending Cleveland Center
Fri 10:21:09 PM 42.2100 -82.7753 319° Northwest 168 193 6,100 49 Climbing Cleveland Center
Fri 10:22:04 PM 42.2447 -82.8131 321° Northwest 168 193 6,100 -52 Level Cleveland Center
Fri 10:23:04 PM 42.2772 -82.8536 317° Northwest 165 190 6,000 -50 Descending Cleveland Center
Fri 10:24:05 PM 42.3139 -82.8942 321° Northwest 163 188 6,000  Level Cleveland Center
Fri 10:25:06 PM 42.3444 -82.9344 316° Northwest 162 186 6,000  Level Cleveland Center
Fri 10:26:07 PM 42.3811 -82.9781 319° Northwest 159 183 6,000  Level Cleveland Center
Fri 10:27:19 PM 42.4197 -83.0217 320° Northwest 160 184 6,000 -142 Level Cleveland Center
Fri 10:28:14 PM 42.4522 -83.0597 319° Northwest 163 188 5,700 -639 Descending Cleveland Center
Fri 10:29:21 PM 42.4950 -83.1119 318° Northwest 181 208 4,700 -793 Descending Cleveland Center
Fri 10:30:15 PM 42.5294 -83.1583 315° West 183 211 4,100 -595 Descending Cleveland Center
Fri 10:31:22 PM 42.5656 -83.2164 310° West 177 204 3,500 -492 Descending Cleveland Center
Fri 10:32:17 PM 42.5894 -83.2597 307° West 168 193 3,100 -440 Descending Cleveland Center
Fri 10:33:11 PM 42.6178 -83.3031 312° West 168 193 2,700 -425 Descending Cleveland Center
Fri 10:34:24 PM 42.6497 -83.3611 307° West 156 180 2,200 -411 Descending Cleveland Center
Fri 10:36:00 PM 42.6500 -83.4167 304° West  Level FlightAware Approximate
Fri 10:43:00 PM 42.6656 -83.4205 304° West  Level Estimated
Fri 10:44:00 PM 42.6656 -83.4205 304° West  Level Estimated

Login

Don't have an account? Register now (free) for customized features, flight alerts, and more!